Time;durP1;ratioP1;P1;durP2;ratioP2;P2;SDS_P1;SDS_P2;PMS_P1;PMS_P2;Temp;Humidity;BMP_temperature;BMP_pressure;BME280_temperature;BME280_humidity;BME280_pressure;Samples;Min_cycle;Max_cycle;Signal;HPM_P1;HPM_P2
2023/04/01 00:00:16;;;;;;;1.20;0.73;;;9.80;99.90;;;;;;5008614;28;20268;-66
2023/04/01 00:02:42;;;;;;;1.45;0.68;;;10.00;99.90;;;;;;5010143;28;20257;-66
2023/04/01 00:05:10;;;;;;;3.00;0.80;;;9.90;99.90;;;;;;5009058;28;20212;-65
2023/04/01 00:07:36;;;;;;;1.23;0.60;;;10.10;99.90;;;;;;5007953;28;20533;-66
2023/04/01 00:10:04;;;;;;;1.35;0.90;;;10.00;99.90;;;;;;5012238;28;20193;-66
2023/04/01 00:12:30;;;;;;;1.63;0.80;;;10.10;99.90;;;;;;5006190;28;20566;-66
2023/04/01 00:14:56;;;;;;;1.20;0.70;;;10.10;99.90;;;;;;5008549;28;20217;-66
2023/04/01 00:17:21;;;;;;;2.10;0.90;;;10.20;99.90;;;;;;5007764;28;20458;-65
2023/04/01 00:19:48;;;;;;;1.70;0.90;;;10.10;99.90;;;;;;5008765;28;20928;-65
2023/04/01 00:22:13;;;;;;;1.00;0.60;;;10.30;99.90;;;;;;5005770;28;20473;-64
2023/04/01 00:24:39;;;;;;;1.07;0.70;;;10.10;99.90;;;;;;5006974;28;20192;-64
2023/04/01 00:27:05;;;;;;;2.20;0.70;;;10.10;99.90;;;;;;5006085;28;20184;-65
2023/04/01 00:29:31;;;;;;;1.73;0.80;;;10.20;99.90;;;;;;5008774;28;20215;-64
2023/04/01 00:31:57;;;;;;;1.55;1.08;;;10.10;99.90;;;;;;5007607;28;20301;-64
2023/04/01 00:34:23;;;;;;;1.25;0.90;;;10.10;99.90;;;;;;5006750;28;20216;-65
2023/04/01 00:36:50;;;;;;;2.38;0.80;;;10.10;99.90;;;;;;5008048;28;20186;-65
2023/04/01 00:39:16;;;;;;;2.17;0.88;;;10.00;99.90;;;;;;5008980;28;20185;-64
2023/04/01 00:41:42;;;;;;;1.92;0.95;;;10.00;99.90;;;;;;5007703;28;20342;-64
2023/04/01 00:44:23;;;;;;;1.13;0.60;;;10.10;99.90;;;;;;5008975;28;20267;-64
2023/04/01 00:46:50;;;;;;;1.95;0.95;;;10.00;99.90;;;;;;5007192;28;20181;-65
2023/04/01 00:49:20;;;;;;;2.63;0.90;;;9.90;99.90;;;;;;5008365;28;20718;-65
2023/04/01 00:51:48;;;;;;;3.08;1.10;;;10.00;99.90;;;;;;5006621;28;20237;-65
2023/04/01 00:54:16;;;;;;;4.63;0.80;;;10.30;99.90;;;;;;5011931;28;20243;-64
2023/04/01 00:56:49;;;;;;;1.35;0.80;;;10.00;99.90;;;;;;5008644;28;20216;-65
2023/04/01 00:59:22;;;;;;;1.50;0.80;;;10.30;99.90;;;;;;5012559;28;20409;-64
2023/04/01 01:01:48;;;;;;;1.27;1.13;;;10.40;99.90;;;;;;5012187;28;20260;-64
2023/04/01 01:04:29;;;;;;;1.10;0.80;;;10.40;99.90;;;;;;5011289;28;20243;-64
2023/04/01 01:07:03;;;;;;;4.95;1.33;;;10.20;99.90;;;;;;5009461;28;20207;-65
2023/04/01 01:09:53;;;;;;;3.15;1.65;;;10.30;99.90;;;;;;5009427;28;20672;-64
2023/04/01 01:12:39;;;;;;;1.25;0.90;;;10.20;99.90;;;;;;5008829;28;20222;-65
2023/04/01 01:15:16;;;;;;;2.10;1.00;;;10.30;99.90;;;;;;5011036;28;20761;-65
2023/04/01 01:17:47;;;;;;;2.65;0.70;;;10.40;99.90;;;;;;5010855;28;20234;-65
2023/04/01 01:20:19;;;;;;;1.25;0.73;;;10.10;99.90;;;;;;5010745;28;20192;-65
2023/04/01 01:23:09;;;;;;;2.15;0.60;;;10.40;99.90;;;;;;5012056;28;20286;-65
2023/04/01 01:25:56;;;;;;;0.80;0.60;;;10.10;99.90;;;;;;5011222;28;20187;-65
2023/04/01 01:28:52;;;;;;;2.00;0.65;;;10.10;99.90;;;;;;5008952;28;20675;-65
2023/04/01 01:31:21;;;;;;;1.35;0.70;;;10.10;99.90;;;;;;5011466;28;20594;-64
2023/04/01 01:34:05;;;;;;;1.63;0.68;;;10.20;99.90;;;;;;5011091;28;20287;-65
2023/04/01 01:36:36;;;;;;;2.20;0.80;;;10.00;99.90;;;;;;5010096;28;20602;-65
2023/04/01 01:39:06;;;;;;;1.70;1.60;;;10.40;99.90;;;;;;5011673;28;20234;-64
2023/04/01 01:41:34;;;;;;;1.90;0.80;;;10.40;99.90;;;;;;5009023;28;20243;-64
2023/04/01 01:44:02;;;;;;;1.77;0.70;;;10.00;99.90;;;;;;5011735;28;20192;-65
2023/04/01 01:46:30;;;;;;;1.70;0.68;;;10.20;99.90;;;;;;5011168;28;20254;-65
2023/04/01 01:48:57;;;;;;;1.45;1.05;;;10.30;99.90;;;;;;5009029;28;20258;-65
2023/04/01 01:51:26;;;;;;;1.10;0.88;;;10.10;99.90;;;;;;5011022;28;20208;-65
2023/04/01 01:53:52;;;;;;;3.80;0.88;;;10.20;99.90;;;;;;5012783;28;20221;-65
2023/04/01 01:56:21;;;;;;;2.13;0.80;;;10.10;99.90;;;;;;5008252;28;20287;-65
2023/04/01 01:58:54;;;;;;;1.02;0.60;;;10.00;99.90;;;;;;5011434;28;20673;-65
2023/04/01 02:01:26;;;;;;;1.35;0.70;;;10.20;99.90;;;;;;5009574;28;20210;-65
2023/04/01 02:03:53;;;;;;;1.00;0.70;;;10.00;99.90;;;;;;5009445;28;20250;-65
2023/04/01 02:06:23;;;;;;;2.55;0.90;;;10.00;99.90;;;;;;5009655;28;20188;-65
2023/04/01 02:09:02;;;;;;;0.82;0.60;;;10.00;99.90;;;;;;5011063;28;20233;-65
2023/04/01 02:11:55;;;;;;;0.90;0.52;;;10.10;99.90;;;;;;5009454;28;20555;-65
2023/04/01 02:14:23;;;;;;;0.75;0.60;;;10.40;99.90;;;;;;5007245;28;20232;-65
2023/04/01 02:17:03;;;;;;;2.70;0.80;;;10.10;99.90;;;;;;5005167;28;20189;-65
2023/04/01 02:19:52;;;;;;;1.30;0.60;;;10.00;99.90;;;;;;5010364;28;20199;-65
2023/04/01 02:22:24;;;;;;;1.00;0.65;;;10.00;99.90;;;;;;5007807;28;20415;-65
2023/04/01 02:24:53;;;;;;;1.35;0.73;;;9.90;99.90;;;;;;5010505;28;20192;-65
2023/04/01 02:27:20;;;;;;;1.35;0.60;;;9.70;99.90;;;;;;5007401;28;20212;-64
2023/04/01 02:29:46;;;;;;;1.77;0.75;;;9.70;99.90;;;;;;5012525;28;20188;-65
2023/04/01 02:32:14;;;;;;;1.40;0.60;;;9.90;99.90;;;;;;5010069;28;20579;-65
2023/04/01 02:34:40;;;;;;;1.13;0.70;;;9.70;99.90;;;;;;5010148;28;20216;-65
2023/04/01 02:37:06;;;;;;;1.65;0.63;;;9.90;99.90;;;;;;5008202;28;20207;-65
2023/04/01 02:39:32;;;;;;;1.48;0.60;;;9.70;99.90;;;;;;5010315;28;20189;-65
2023/04/01 02:41:58;;;;;;;1.43;0.60;;;9.60;99.90;;;;;;5007037;28;20713;-65
2023/04/01 02:44:23;;;;;;;2.10;0.70;;;9.70;99.90;;;;;;5010971;28;20661;-65
2023/04/01 02:46:49;;;;;;;1.10;0.60;;;9.50;99.90;;;;;;5007928;28;20188;-65
2023/04/01 02:49:15;;;;;;;0.70;0.57;;;9.50;99.90;;;;;;5008763;28;20199;-65
2023/04/01 02:51:40;;;;;;;0.93;0.50;;;9.70;99.90;;;;;;5007864;28;20220;-65
2023/04/01 02:54:06;;;;;;;1.00;0.40;;;9.60;99.90;;;;;;5013293;28;20262;-65
2023/04/01 02:56:31;;;;;;;1.00;0.80;;;9.50;99.90;;;;;;5008102;28;20225;-65
2023/04/01 02:58:57;;;;;;;1.00;0.80;;;9.70;99.90;;;;;;5010488;28;20202;-65
2023/04/01 03:01:23;;;;;;;0.70;0.40;;;9.50;99.90;;;;;;5009421;28;20207;-65
2023/04/01 03:03:49;;;;;;;0.80;0.52;;;9.00;99.90;;;;;;5011301;28;20203;-65
2023/04/01 03:06:16;;;;;;;0.70;0.47;;;9.60;99.90;;;;;;5007634;28;20203;-65
2023/04/01 03:08:41;;;;;;;1.20;0.45;;;9.50;99.90;;;;;;5011122;28;20278;-64
2023/04/01 03:11:08;;;;;;;0.50;0.40;;;9.70;99.90;;;;;;5011343;28;20212;-64
2023/04/01 03:13:34;;;;;;;0.65;0.50;;;9.70;99.90;;;;;;5008940;28;20500;-65
2023/04/01 03:15:59;;;;;;;1.20;0.60;;;9.30;99.90;;;;;;5011132;28;20182;-64
2023/04/01 03:18:25;;;;;;;0.87;0.50;;;9.50;99.90;;;;;;5008654;28;20363;-64
2023/04/01 03:20:51;;;;;;;1.17;0.70;;;9.90;99.90;;;;;;5007282;28;20683;-65
2023/04/01 03:23:19;;;;;;;0.70;0.40;;;9.30;99.90;;;;;;5012860;28;20716;-65
2023/04/01 03:25:45;;;;;;;1.45;0.70;;;9.40;99.90;;;;;;5008788;28;20333;-65
2023/04/01 03:28:12;;;;;;;1.20;0.50;;;9.50;99.90;;;;;;5010154;28;20279;-65
2023/04/01 03:30:37;;;;;;;0.60;0.50;;;9.60;99.90;;;;;;5009272;28;20446;-65
2023/04/01 03:33:03;;;;;;;0.80;0.50;;;9.50;99.90;;;;;;5007277;28;20669;-65
2023/04/01 03:35:29;;;;;;;1.73;0.50;;;9.60;99.90;;;;;;5008549;28;20207;-65
2023/04/01 03:37:54;;;;;;;2.00;0.83;;;9.60;99.90;;;;;;5008809;28;20253;-65
2023/04/01 03:40:21;;;;;;;0.70;0.60;;;9.70;99.90;;;;;;5010540;28;20423;-64
2023/04/01 03:42:47;;;;;;;0.80;0.55;;;9.50;99.90;;;;;;5009441;28;20203;-65
2023/04/01 03:45:12;;;;;;;0.90;0.50;;;9.60;99.90;;;;;;5009495;28;20707;-65
2023/04/01 03:47:39;;;;;;;1.80;1.27;;;9.40;99.90;;;;;;5008442;28;20265;-64
2023/04/01 03:50:06;;;;;;;0.88;0.50;;;9.40;99.90;;;;;;5008989;28;20915;-65
2023/04/01 03:52:32;;;;;;;0.82;0.55;;;9.50;99.90;;;;;;5008275;28;20621;-64
2023/04/01 03:54:57;;;;;;;0.60;0.47;;;9.70;99.90;;;;;;5009093;28;20708;-64
2023/04/01 03:57:23;;;;;;;0.60;0.50;;;9.50;99.90;;;;;;5006098;28;20188;-64
2023/04/01 03:59:49;;;;;;;1.47;0.50;;;9.50;99.90;;;;;;5009827;28;20191;-64
2023/04/01 04:02:14;;;;;;;0.70;0.47;;;9.30;99.90;;;;;;5008828;28;20201;-64
2023/04/01 04:04:40;;;;;;;0.60;0.40;;;9.50;99.90;;;;;;5023608;28;20699;-65
2023/04/01 04:07:06;;;;;;;1.90;0.52;;;9.40;99.90;;;;;;5007002;28;20254;-65
2023/04/01 04:09:33;;;;;;;0.60;0.50;;;9.70;99.90;;;;;;5009404;28;20224;-64
2023/04/01 04:12:00;;;;;;;1.55;0.70;;;9.60;99.90;;;;;;5002914;28;20210;-64
2023/04/01 04:14:26;;;;;;;1.77;0.60;;;9.20;99.90;;;;;;5040819;28;20291;-64
2023/04/01 04:16:52;;;;;;;0.90;0.60;;;9.40;99.90;;;;;;5005317;28;20334;-65
2023/04/01 04:19:17;;;;;;;1.03;0.50;;;9.40;99.90;;;;;;5007727;28;20421;-64
2023/04/01 04:21:43;;;;;;;1.67;0.57;;;9.40;99.90;;;;;;5008927;28;20430;-64
2023/04/01 04:24:09;;;;;;;0.70;0.50;;;9.20;99.90;;;;;;5007622;28;20197;-64
2023/04/01 04:26:35;;;;;;;1.13;0.50;;;9.20;99.90;;;;;;5005224;28;20179;-64
2023/04/01 04:29:01;;;;;;;0.70;0.43;;;9.10;99.90;;;;;;5008467;28;20205;-64
2023/04/01 04:31:27;;;;;;;1.20;0.50;;;9.30;99.90;;;;;;5008615;28;20456;-64
2023/04/01 04:33:53;;;;;;;0.60;0.50;;;9.20;99.90;;;;;;5007948;28;20436;-65
2023/04/01 04:36:21;;;;;;;1.15;0.50;;;9.20;99.90;;;;;;5007277;28;20186;-64
2023/04/01 04:38:47;;;;;;;0.70;0.60;;;9.20;99.90;;;;;;5009820;28;20190;-64
2023/04/01 04:41:15;;;;;;;0.95;0.60;;;9.00;99.90;;;;;;5004992;28;20217;-65
2023/04/01 04:43:41;;;;;;;1.05;0.40;;;8.80;99.90;;;;;;5006796;28;20194;-65
2023/04/01 04:46:08;;;;;;;1.35;0.50;;;8.70;99.90;;;;;;5006181;28;20216;-65
2023/04/01 04:48:34;;;;;;;0.70;0.40;;;9.10;99.90;;;;;;5008154;28;20623;-65
2023/04/01 04:51:00;;;;;;;0.80;0.40;;;8.80;99.90;;;;;;5007212;28;20282;-65
2023/04/01 04:53:26;;;;;;;2.42;0.80;;;9.40;99.90;;;;;;5008198;28;20279;-65
2023/04/01 04:55:52;;;;;;;0.60;0.40;;;8.90;99.90;;;;;;5006363;28;20212;-65
2023/04/01 04:58:18;;;;;;;1.00;0.57;;;9.10;99.90;;;;;;5023614;28;20188;-65
2023/04/01 05:00:45;;;;;;;2.45;0.80;;;9.20;99.90;;;;;;5008950;28;20187;-65
2023/04/01 05:03:11;;;;;;;0.80;0.65;;;8.90;99.90;;;;;;5006427;28;20674;-65
2023/04/01 05:05:37;;;;;;;2.03;0.55;;;9.10;99.90;;;;;;5006780;28;20585;-65
2023/04/01 05:08:02;;;;;;;1.80;0.60;;;8.90;99.90;;;;;;5009506;28;20200;-65
2023/04/01 05:10:28;;;;;;;0.60;0.50;;;9.00;99.90;;;;;;5005689;28;20452;-65
2023/04/01 05:12:54;;;;;;;0.83;0.60;;;9.00;99.90;;;;;;5005496;28;20191;-65
2023/04/01 05:15:19;;;;;;;0.83;0.60;;;9.30;99.90;;;;;;5008853;28;20300;-65
2023/04/01 05:17:45;;;;;;;1.70;0.87;;;9.00;99.90;;;;;;5008409;28;20198;-65
2023/04/01 05:20:13;;;;;;;2.07;0.80;;;9.00;99.90;;;;;;5007864;28;20474;-65
2023/04/01 05:22:38;;;;;;;1.23;0.60;;;9.30;99.90;;;;;;5006405;28;20207;-65
2023/04/01 05:25:04;;;;;;;0.90;0.60;;;9.20;99.90;;;;;;5006858;28;20287;-65
2023/04/01 05:27:30;;;;;;;1.05;0.70;;;9.00;99.90;;;;;;5005867;28;20231;-65
2023/04/01 05:29:56;;;;;;;1.10;0.60;;;9.20;99.90;;;;;;5007862;28;20658;-65
2023/04/01 05:32:21;;;;;;;2.27;0.83;;;9.30;99.90;;;;;;5006839;28;20262;-65
2023/04/01 05:34:50;;;;;;;1.67;0.70;;;9.80;99.90;;;;;;5006546;28;20669;-65
2023/04/01 05:37:16;;;;;;;1.33;0.77;;;9.30;99.90;;;;;;5006334;28;20183;-65
2023/04/01 05:39:42;;;;;;;2.33;1.63;;;9.20;99.90;;;;;;5008573;28;20263;-65
2023/04/01 05:42:08;;;;;;;2.20;0.60;;;9.40;99.90;;;;;;5009882;28;20242;-65
2023/04/01 05:44:34;;;;;;;1.40;0.80;;;9.60;99.90;;;;;;5009900;28;20195;-65
2023/04/01 05:47:01;;;;;;;1.67;0.90;;;9.40;99.90;;;;;;5011437;28;20418;-65
2023/04/01 05:49:26;;;;;;;1.00;0.50;;;9.80;99.90;;;;;;5010637;28;20279;-64
2023/04/01 05:51:52;;;;;;;3.43;0.70;;;9.70;99.90;;;;;;5012085;28;20289;-65
2023/04/01 05:54:18;;;;;;;1.23;0.63;;;10.00;99.90;;;;;;5012269;28;20211;-65
2023/04/01 05:56:44;;;;;;;1.65;0.70;;;9.40;99.90;;;;;;5007123;28;20196;-65
2023/04/01 05:59:11;;;;;;;1.60;0.70;;;10.00;99.90;;;;;;5009827;28;20186;-65
2023/04/01 06:01:36;;;;;;;0.88;0.50;;;10.20;99.90;;;;;;5010757;28;20219;-65
2023/04/01 06:04:02;;;;;;;1.90;1.07;;;10.10;99.90;;;;;;5006656;28;20194;-65
2023/04/01 06:06:30;;;;;;;3.30;0.60;;;10.60;99.90;;;;;;5010046;28;20201;-66
2023/04/01 06:08:58;;;;;;;1.10;0.60;;;10.10;99.90;;;;;;5007795;28;20189;-65
2023/04/01 06:11:36;;;;;;;2.25;0.70;;;10.20;99.90;;;;;;5003287;28;20568;-66
2023/04/01 06:14:16;;;;;;;1.08;0.70;;;10.30;99.90;;;;;;5009541;28;20211;-65
2023/04/01 06:16:59;;;;;;;1.00;0.80;;;10.50;99.90;;;;;;5008132;28;20223;-66
2023/04/01 06:19:25;;;;;;;1.58;0.80;;;10.40;99.90;;;;;;5005744;28;20193;-66
2023/04/01 06:22:26;;;;;;;3.10;0.90;;;10.80;99.90;;;;;;5011901;28;20205;-67
2023/04/01 06:25:16;;;;;;;2.05;0.90;;;10.70;99.90;;;;;;5007848;28;20221;-68
2023/04/01 06:28:03;;;;;;;1.15;0.60;;;11.40;99.90;;;;;;5007241;28;20198;-64
2023/04/01 06:30:43;;;;;;;1.58;0.70;;;10.90;99.90;;;;;;5007481;28;20194;-68
2023/04/01 06:33:18;;;;;;;0.70;0.50;;;11.10;99.90;;;;;;5009490;28;20208;-69
2023/04/01 06:36:45;;;;;;;1.98;0.90;;;10.90;99.90;;;;;;5006342;28;20780;-68
2023/04/01 06:39:32;;;;;;;2.30;0.65;;;11.00;99.90;;;;;;4999483;28;20192;-67
2023/04/01 06:42:05;;;;;;;1.60;0.80;;;10.80;99.90;;;;;;5005916;28;20222;-66
2023/04/01 06:44:48;;;;;;;4.00;0.88;;;10.90;99.90;;;;;;5009385;28;20286;-68
2023/04/01 06:47:34;;;;;;;1.02;0.60;;;10.60;99.90;;;;;;5009451;28;20667;-67
2023/04/01 06:50:07;;;;;;;0.85;0.70;;;10.90;99.90;;;;;;5007458;28;20214;-66
2023/04/01 06:52:54;;;;;;;0.93;0.70;;;11.00;99.90;;;;;;5007668;28;20718;-67
2023/04/01 06:55:37;;;;;;;2.15;0.73;;;11.00;99.90;;;;;;5011236;28;20220;-67
2023/04/01 06:58:05;;;;;;;1.10;0.77;;;10.70;99.90;;;;;;5024643;28;20591;-67
2023/04/01 07:00:40;;;;;;;1.20;0.60;;;10.90;99.90;;;;;;5007633;28;20189;-67
2023/04/01 07:03:36;;;;;;;1.35;0.60;;;11.10;99.90;;;;;;5008280;28;20186;-67
2023/04/01 07:06:09;;;;;;;1.08;1.00;;;11.20;99.90;;;;;;5008479;28;20196;-69
2023/04/01 07:08:40;;;;;;;0.75;0.57;;;11.20;99.90;;;;;;5006143;28;20193;-67
2023/04/01 07:11:09;;;;;;;1.00;0.70;;;11.40;99.90;;;;;;5005522;28;20203;-69
2023/04/01 07:13:55;;;;;;;1.40;0.90;;;11.40;99.90;;;;;;5009214;28;20283;-66
2023/04/01 07:16:51;;;;;;;1.70;0.75;;;11.40;99.90;;;;;;5007617;28;20278;-70
2023/04/01 07:19:49;;;;;;;1.85;0.63;;;11.50;99.90;;;;;;5008419;28;20745;-75
2023/04/01 07:22:39;;;;;;;1.30;0.70;;;11.30;99.90;;;;;;5006142;28;20210;-71
2023/04/01 07:25:15;;;;;;;1.45;0.73;;;11.30;99.90;;;;;;5010937;28;20182;-70
2023/04/01 07:27:42;;;;;;;1.02;0.70;;;11.30;99.90;;;;;;5012014;28;20767;-70
2023/04/01 07:30:15;;;;;;;0.80;0.50;;;10.60;99.90;;;;;;5011310;28;20689;-70
2023/04/01 07:32:51;;;;;;;2.45;0.60;;;11.20;99.90;;;;;;5006538;28;20213;-64
2023/04/01 07:35:40;;;;;;;1.20;0.65;;;10.90;99.90;;;;;;5007604;28;20209;-65
2023/04/01 07:38:25;;;;;;;1.58;1.10;;;11.10;99.90;;;;;;5008034;28;20256;-65
2023/04/01 07:41:01;;;;;;;0.70;0.60;;;10.90;99.90;;;;;;5009071;28;20275;-65
2023/04/01 07:43:54;;;;;;;0.95;0.70;;;11.30;99.90;;;;;;5004943;28;20186;-67
2023/04/01 07:46:46;;;;;;;1.48;0.90;;;11.20;99.90;;;;;;5002339;28;20197;-67
2023/04/01 07:49:40;;;;;;;1.45;0.80;;;11.10;99.90;;;;;;5006601;28;20240;-66
2023/04/01 07:52:40;;;;;;;1.10;0.70;;;11.30;99.90;;;;;;5021507;28;20217;-65
2023/04/01 07:55:12;;;;;;;0.85;0.70;;;11.00;99.90;;;;;;4996305;28;20593;-66
2023/04/01 07:57:52;;;;;;;1.13;0.65;;;10.90;99.90;;;;;;5007190;28;20185;-66
2023/04/01 08:00:27;;;;;;;1.17;0.52;;;11.50;99.90;;;;;;5008044;28;20202;-66
2023/04/01 08:03:30;;;;;;;1.45;0.70;;;11.50;99.90;;;;;;5006859;28;20217;-65
2023/04/01 08:06:14;;;;;;;1.40;0.75;;;11.70;99.90;;;;;;5005175;28;20197;-66
2023/04/01 08:09:01;;;;;;;2.08;0.80;;;11.70;99.90;;;;;;5007427;28;20313;-66
2023/04/01 08:11:36;;;;;;;1.10;0.75;;;11.50;99.90;;;;;;5005640;28;20211;-66
2023/04/01 08:14:04;;;;;;;1.70;0.80;;;11.50;99.90;;;;;;5005682;28;20232;-66
2023/04/01 08:16:35;;;;;;;1.50;0.90;;;11.60;99.90;;;;;;5003334;28;20193;-66
2023/04/01 08:19:09;;;;;;;0.80;0.60;;;11.80;99.90;;;;;;5003453;28;20188;-66
2023/04/01 08:21:41;;;;;;;1.15;0.60;;;11.70;99.90;;;;;;5006412;28;20236;-66
2023/04/01 08:24:32;;;;;;;2.80;0.80;;;12.10;99.90;;;;;;5006072;28;20194;-66
2023/04/01 08:27:01;;;;;;;2.58;0.90;;;11.90;99.90;;;;;;5004942;28;20193;-66
2023/04/01 08:29:35;;;;;;;1.80;0.90;;;11.90;99.90;;;;;;5007830;28;20175;-66
2023/04/01 08:32:12;;;;;;;1.70;0.90;;;12.00;99.90;;;;;;5007538;28;20652;-66
2023/04/01 08:34:41;;;;;;;0.90;0.55;;;12.30;99.90;;;;;;5006697;28;20671;-66
2023/04/01 08:37:14;;;;;;;2.03;0.70;;;12.10;99.90;;;;;;5006153;28;20179;-66
2023/04/01 08:40:05;;;;;;;1.08;0.60;;;12.20;99.90;;;;;;5007343;28;20656;-66
2023/04/01 08:42:48;;;;;;;2.08;0.80;;;12.10;99.90;;;;;;5005930;28;20273;-66
2023/04/01 08:45:40;;;;;;;0.70;0.70;;;12.00;99.90;;;;;;5005927;28;20185;-66
2023/04/01 08:48:32;;;;;;;1.45;0.60;;;11.90;99.90;;;;;;5005408;28;20730;-66
2023/04/01 08:51:16;;;;;;;0.90;0.60;;;12.00;99.90;;;;;;5006128;28;20213;-66
2023/04/01 08:54:08;;;;;;;1.70;0.70;;;12.00;99.90;;;;;;5006660;28;20194;-66
2023/04/01 08:56:35;;;;;;;1.23;0.60;;;11.80;99.90;;;;;;5002928;28;20175;-66
2023/04/01 08:59:16;;;;;;;1.85;0.80;;;11.40;99.90;;;;;;5007434;28;20190;-66
2023/04/01 09:01:57;;;;;;;1.25;0.60;;;11.50;99.90;;;;;;5002945;28;20209;-66
2023/04/01 09:04:31;;;;;;;0.90;0.60;;;11.30;99.90;;;;;;5005106;28;20678;-66
2023/04/01 09:07:10;;;;;;;1.85;0.65;;;10.90;99.90;;;;;;5005494;28;20605;-66
2023/04/01 09:10:21;;;;;;;0.60;0.55;;;11.20;99.90;;;;;;5007694;28;20528;-66
2023/04/01 09:13:12;;;;;;;1.40;0.70;;;11.00;99.90;;;;;;5005514;28;20236;-66
2023/04/01 09:15:57;;;;;;;0.88;0.70;;;11.10;99.90;;;;;;5008824;28;20309;-66
2023/04/01 09:18:58;;;;;;;1.27;0.60;;;11.50;99.90;;;;;;5008397;28;20248;-66
2023/04/01 09:21:42;;;;;;;1.20;0.70;;;11.50;99.90;;;;;;5039211;28;20636;-66
2023/04/01 09:24:21;;;;;;;1.13;0.63;;;11.70;99.90;;;;;;5011285;28;20187;-66
2023/04/01 09:27:04;;;;;;;2.80;2.55;;;11.70;99.90;;;;;;5008383;28;20599;-66
2023/04/01 09:29:48;;;;;;;0.98;0.50;;;12.20;99.90;;;;;;5011048;28;20261;-64
2023/04/01 09:33:04;;;;;;;0.70;0.60;;;12.00;99.90;;;;;;5009152;28;20210;-65
2023/04/01 09:35:50;;;;;;;0.80;0.50;;;12.50;99.90;;;;;;5008004;28;20238;-65
2023/04/01 09:38:29;;;;;;;0.80;0.70;;;12.70;99.90;;;;;;5011230;28;20179;-66
2023/04/01 09:41:13;;;;;;;0.60;0.60;;;13.10;99.90;;;;;;5008601;28;20217;-66
2023/04/01 09:43:45;;;;;;;0.70;0.50;;;13.00;99.90;;;;;;5010893;28;20183;-66
2023/04/01 09:46:32;;;;;;;1.15;0.50;;;12.80;99.90;;;;;;5010218;28;20190;-66
2023/04/01 09:49:34;;;;;;;0.90;0.65;;;12.70;99.90;;;;;;5006180;28;20283;-66
2023/04/01 09:52:25;;;;;;;0.90;0.60;;;12.20;99.90;;;;;;5022057;28;20198;-67
2023/04/01 09:55:12;;;;;;;0.68;0.50;;;12.20;99.90;;;;;;5012577;28;20242;-68
2023/04/01 09:58:30;;;;;;;1.05;0.70;;;12.40;99.90;;;;;;5007280;28;20232;-67
2023/04/01 10:01:13;;;;;;;1.08;0.65;;;12.30;99.90;;;;;;5007042;28;20214;-67
2023/04/01 10:04:03;;;;;;;1.60;0.90;;;12.20;99.90;;;;;;5003094;28;20186;-68
2023/04/01 10:06:51;;;;;;;0.80;0.60;;;12.20;99.90;;;;;;5007953;28;20206;-68
2023/04/01 10:09:34;;;;;;;0.80;0.70;;;12.40;99.90;;;;;;5006285;28;20206;-68
2023/04/01 10:12:21;;;;;;;0.90;0.60;;;12.60;99.90;;;;;;5004682;28;20224;-67
2023/04/01 10:14:53;;;;;;;0.70;0.60;;;12.40;99.90;;;;;;5007986;28;20305;-68
2023/04/01 10:17:19;;;;;;;0.60;0.50;;;12.30;99.90;;;;;;5003479;28;20205;-67
2023/04/01 10:20:06;;;;;;;0.70;0.50;;;11.90;99.90;;;;;;5009408;28;20645;-67
2023/04/01 10:23:01;;;;;;;1.05;0.90;;;12.50;99.90;;;;;;5007107;28;20427;-67
2023/04/01 10:26:04;;;;;;;0.80;0.50;;;12.10;99.90;;;;;;5011257;28;20329;-66
2023/04/01 10:28:48;;;;;;;0.80;0.45;;;12.50;99.90;;;;;;5008569;28;20190;-66
2023/04/01 10:31:32;;;;;;;0.70;0.60;;;12.90;99.90;;;;;;5006530;28;20214;-67
2023/04/01 10:34:19;;;;;;;0.90;0.60;;;13.10;99.90;;;;;;5006733;28;20206;-67
2023/04/01 10:36:58;;;;;;;0.82;0.60;;;13.30;99.70;;;;;;5010989;28;20555;-67
2023/04/01 10:40:12;;;;;;;0.75;0.65;;;13.80;99.20;;;;;;5008670;28;20596;-67
2023/04/01 10:43:17;;;;;;;0.90;0.70;;;13.60;98.30;;;;;;5007443;28;20679;-67
2023/04/01 10:46:04;;;;;;;0.95;0.57;;;13.90;98.20;;;;;;5006206;28;20198;-67
2023/04/01 10:48:44;;;;;;;0.93;0.60;;;13.50;97.70;;;;;;5008205;28;20773;-67
2023/04/01 10:51:41;;;;;;;0.93;0.52;;;13.80;98.40;;;;;;5006871;28;20306;-67
2023/04/01 10:54:57;;;;;;;0.82;0.40;;;13.90;97.20;;;;;;5007937;28;20219;-67
2023/04/01 10:57:41;;;;;;;0.60;0.40;;;13.90;97.40;;;;;;5002693;28;20195;-67
2023/04/01 11:00:59;;;;;;;0.60;0.40;;;13.50;96.90;;;;;;5008225;28;20198;-67
2023/04/01 11:03:43;;;;;;;0.70;0.50;;;13.50;97.60;;;;;;5019912;28;20286;-67
2023/04/01 11:06:11;;;;;;;0.65;0.50;;;13.40;97.10;;;;;;5006812;28;20202;-67
2023/04/01 11:09:05;;;;;;;0.82;0.68;;;13.30;97.20;;;;;;5008007;28;20202;-67
2023/04/01 11:11:42;;;;;;;0.60;0.50;;;13.40;98.20;;;;;;5002672;28;20632;-66
2023/04/01 11:14:56;;;;;;;0.60;0.50;;;12.80;97.70;;;;;;5009180;28;20299;-67
2023/04/01 11:17:45;;;;;;;0.70;0.47;;;13.40;97.60;;;;;;5009877;28;20227;-67
2023/04/01 11:20:26;;;;;;;0.85;0.70;;;13.40;97.20;;;;;;5005881;28;20241;-67
2023/04/01 11:23:11;;;;;;;0.77;0.40;;;13.60;97.20;;;;;;5007194;28;20203;-67
2023/04/01 11:26:29;;;;;;;0.60;0.50;;;14.10;96.30;;;;;;5005259;28;20183;-67
2023/04/01 11:29:26;;;;;;;0.90;0.70;;;14.30;95.80;;;;;;4991111;28;20217;-67
2023/04/01 11:32:15;;;;;;;1.10;0.55;;;14.40;95.00;;;;;;5007693;28;20210;-67
2023/04/01 11:34:58;;;;;;;0.60;0.50;;;15.10;94.90;;;;;;5004261;28;20230;-66
2023/04/01 11:37:29;;;;;;;0.70;0.60;;;15.00;94.40;;;;;;5009225;28;20183;-66
2023/04/01 11:40:03;;;;;;;0.70;0.60;;;15.20;94.00;;;;;;5007337;28;20191;-66
2023/04/01 11:42:34;;;;;;;0.80;0.57;;;15.20;94.30;;;;;;5004812;28;20201;-66
2023/04/01 11:45:25;;;;;;;0.70;0.50;;;15.00;93.60;;;;;;5007385;28;20178;-66
2023/04/01 11:48:12;;;;;;;0.60;0.50;;;15.10;93.50;;;;;;5007125;28;20197;-66
2023/04/01 11:51:15;;;;;;;1.17;0.70;;;15.30;94.10;;;;;;5019241;28;20201;-66
2023/04/01 11:53:59;;;;;;;6.13;2.75;;;15.40;93.80;;;;;;5009086;28;20241;-66
2023/04/01 11:56:34;;;;;;;0.70;0.50;;;14.80;93.60;;;;;;5004011;28;20183;-66
2023/04/01 11:59:10;;;;;;;0.90;0.60;;;14.60;94.10;;;;;;5006346;28;20183;-66
2023/04/01 12:01:52;;;;;;;5.13;2.80;;;14.40;94.60;;;;;;5020863;28;20245;-66
2023/04/01 12:04:26;;;;;;;0.90;0.60;;;14.30;94.80;;;;;;5010601;28;20178;-66
2023/04/01 12:07:05;;;;;;;2.75;1.85;;;14.30;95.30;;;;;;5001430;28;20183;-66
2023/04/01 12:09:34;;;;;;;0.60;0.50;;;14.00;95.30;;;;;;5006101;28;20179;-66
2023/04/01 12:12:09;;;;;;;1.70;0.93;;;14.00;95.40;;;;;;5005511;28;20202;-68
2023/04/01 12:15:03;;;;;;;2.05;1.00;;;13.90;95.60;;;;;;5040169;28;20743;-66
2023/04/01 12:18:02;;;;;;;0.80;0.60;;;13.60;95.80;;;;;;5001292;28;20210;-66
2023/04/01 12:20:43;;;;;;;0.95;0.70;;;13.70;96.40;;;;;;5006519;28;20189;-66
2023/04/01 12:23:28;;;;;;;1.00;0.85;;;13.50;97.20;;;;;;5006335;28;20181;-66
2023/04/01 12:26:13;;;;;;;2.78;2.13;;;13.60;97.40;;;;;;5006293;28;20202;-66
2023/04/01 12:29:29;;;;;;;0.95;0.82;;;13.60;97.60;;;;;;5005481;28;20186;-67
2023/04/01 12:32:09;;;;;;;2.55;1.10;;;13.40;98.30;;;;;;5004824;28;20233;-67
2023/04/01 12:35:12;;;;;;;0.80;0.50;;;13.60;97.80;;;;;;5023453;28;20220;-66
2023/04/01 12:38:05;;;;;;;0.80;0.65;;;13.50;97.40;;;;;;5010565;28;20187;-66
2023/04/01 12:40:45;;;;;;;1.20;0.60;;;13.90;97.60;;;;;;5006662;28;20190;-69
2023/04/01 12:43:22;;;;;;;0.80;0.60;;;14.10;96.90;;;;;;5006823;28;20281;-67
2023/04/01 12:46:10;;;;;;;0.90;0.60;;;14.50;96.80;;;;;;5007254;28;20193;-67
2023/04/01 12:49:05;;;;;;;0.80;0.60;;;14.40;95.20;;;;;;5006596;28;20187;-69
2023/04/01 12:52:07;;;;;;;0.70;0.50;;;14.50;94.70;;;;;;5007637;28;20575;-70
2023/04/01 12:54:55;;;;;;;0.85;0.47;;;14.40;94.50;;;;;;5005796;28;20301;-68
2023/04/01 12:57:58;;;;;;;0.65;0.47;;;14.50;94.40;;;;;;5006422;28;20179;-69
2023/04/01 13:00:38;;;;;;;0.75;0.50;;;14.10;94.50;;;;;;5009811;28;20178;-66
2023/04/01 13:03:36;;;;;;;0.50;0.40;;;14.50;95.00;;;;;;5011684;28;20182;-66
2023/04/01 13:06:34;;;;;;;0.90;0.50;;;14.60;94.70;;;;;;5010953;28;20219;-67
2023/04/01 13:09:19;;;;;;;0.60;0.50;;;14.80;94.50;;;;;;5011043;28;20194;-66
2023/04/01 13:12:09;;;;;;;0.80;0.50;;;14.60;93.40;;;;;;5009241;28;20210;-66
2023/04/01 13:14:50;;;;;;;0.60;0.50;;;14.60;93.20;;;;;;5006397;28;20203;-68
2023/04/01 13:17:40;;;;;;;1.92;0.55;;;14.50;93.70;;;;;;5013467;28;20282;-68
2023/04/01 13:20:09;;;;;;;0.60;0.40;;;14.50;94.00;;;;;;5010641;28;20182;-68
2023/04/01 13:22:57;;;;;;;1.00;0.50;;;14.10;94.10;;;;;;5009767;28;20199;-68
2023/04/01 13:25:47;;;;;;;0.60;0.45;;;13.90;94.90;;;;;;5037837;28;20610;-69
2023/04/01 13:28:23;;;;;;;0.70;0.50;;;13.80;95.10;;;;;;5009470;28;20191;-68
2023/04/01 13:31:05;;;;;;;0.70;0.50;;;13.90;95.00;;;;;;5010787;28;20237;-69
2023/04/01 13:33:50;;;;;;;0.60;0.47;;;13.90;95.30;;;;;;5010238;28;20182;-68
2023/04/01 13:36:28;;;;;;;0.60;0.43;;;13.70;95.30;;;;;;5007883;28;20226;-68
2023/04/01 13:39:32;;;;;;;1.50;0.57;;;13.80;95.40;;;;;;5009843;28;20179;-68
2023/04/01 13:42:11;;;;;;;0.60;0.40;;;13.70;95.40;;;;;;5011775;28;20264;-68